sensor_id;sensor_type;location;lat;lon;timestamp;pressure;altitude;pressure_sealevel;temperature;humidity
50710;BME280;37033;49.994;21.992;2023-07-20T00:00:27;98483.80;;;17.62;74.81
50710;BME280;37033;49.994;21.992;2023-07-20T00:03:17;98485.44;;;17.60;75.01
50710;BME280;37033;49.994;21.992;2023-07-20T00:05:48;98486.08;;;17.59;75.16
50710;BME280;37033;49.994;21.992;2023-07-20T00:08:19;98482.89;;;17.55;75.37
50710;BME280;37033;49.994;21.992;2023-07-20T00:10:49;98484.27;;;17.53;75.35
50710;BME280;37033;49.994;21.992;2023-07-20T00:13:20;98482.98;;;17.51;75.63
50710;BME280;37033;49.994;21.992;2023-07-20T00:15:51;98483.50;;;17.50;75.72
50710;BME280;37033;49.994;21.992;2023-07-20T00:18:21;98482.81;;;17.49;75.82
50710;BME280;37033;49.994;21.992;2023-07-20T00:20:52;98479.90;;;17.49;75.92
50710;BME280;37033;49.994;21.992;2023-07-20T00:23:23;98477.22;;;17.49;76.15
50710;BME280;37033;49.994;21.992;2023-07-20T00:25:53;98477.69;;;17.47;76.08
50710;BME280;37033;49.994;21.992;2023-07-20T00:28:24;98479.42;;;17.46;76.21
50710;BME280;37033;49.994;21.992;2023-07-20T00:30:55;98479.42;;;17.46;76.37
50710;BME280;37033;49.994;21.992;2023-07-20T00:33:26;98479.09;;;17.46;76.24
50710;BME280;37033;49.994;21.992;2023-07-20T00:35:56;98474.98;;;17.45;76.51
50710;BME280;37033;49.994;21.992;2023-07-20T00:38:27;98474.34;;;17.45;76.78
50710;BME280;37033;49.994;21.992;2023-07-20T00:40:57;98468.35;;;17.42;76.68
50710;BME280;37033;49.994;21.992;2023-07-20T00:43:28;98469.70;;;17.41;76.59
50710;BME280;37033;49.994;21.992;2023-07-20T00:45:59;98472.02;;;17.38;76.65
50710;BME280;37033;49.994;21.992;2023-07-20T00:48:30;98467.82;;;17.36;76.88
50710;BME280;37033;49.994;21.992;2023-07-20T00:51:01;98464.80;;;17.34;77.03
50710;BME280;37033;49.994;21.992;2023-07-20T00:53:32;98461.60;;;17.32;77.16
50710;BME280;37033;49.994;21.992;2023-07-20T00:56:03;98466.20;;;17.30;77.23
50710;BME280;37033;49.994;21.992;2023-07-20T00:58:34;98466.20;;;17.28;77.51
50710;BME280;37033;49.994;21.992;2023-07-20T01:01:05;98462.05;;;17.24;77.52
50710;BME280;37033;49.994;21.992;2023-07-20T01:03:36;98459.30;;;17.22;77.36
50710;BME280;37033;49.994;21.992;2023-07-20T01:06:12;98455.19;;;17.22;77.62
50710;BME280;37033;49.994;21.992;2023-07-20T01:08:50;98458.00;;;17.20;77.79
50710;BME280;37033;49.994;21.992;2023-07-20T01:11:31;98455.65;;;17.20;78.18
50710;BME280;37033;49.994;21.992;2023-07-20T01:14:06;98457.77;;;17.19;78.11
50710;BME280;37033;49.994;21.992;2023-07-20T01:16:38;98456.84;;;17.19;78.34
50710;BME280;37033;49.994;21.992;2023-07-20T01:19:09;98466.65;;;17.20;78.39
50710;BME280;37033;49.994;21.992;2023-07-20T01:21:44;98462.91;;;17.20;78.34
50710;BME280;37033;49.994;21.992;2023-07-20T01:24:38;98466.30;;;17.20;78.46
50710;BME280;37033;49.994;21.992;2023-07-20T01:27:46;98470.13;;;17.20;78.81
50710;BME280;37033;49.994;21.992;2023-07-20T01:30:35;98471.76;;;17.20;78.82
50710;BME280;37033;49.994;21.992;2023-07-20T01:33:14;98474.42;;;17.21;78.81
50710;BME280;37033;49.994;21.992;2023-07-20T01:35:50;98473.45;;;17.23;78.79
50710;BME280;37033;49.994;21.992;2023-07-20T01:38:21;98478.41;;;17.25;78.83
50710;BME280;37033;49.994;21.992;2023-07-20T01:40:53;98483.64;;;17.26;78.97
50710;BME280;37033;49.994;21.992;2023-07-20T01:43:24;98494.33;;;17.25;79.01
50710;BME280;37033;49.994;21.992;2023-07-20T01:45:55;98502.33;;;17.23;79.31
50710;BME280;37033;49.994;21.992;2023-07-20T01:48:26;98495.88;;;17.22;79.40
50710;BME280;37033;49.994;21.992;2023-07-20T01:50:57;98486.15;;;17.20;79.33
50710;BME280;37033;49.994;21.992;2023-07-20T01:53:27;98484.98;;;17.18;79.26
50710;BME280;37033;49.994;21.992;2023-07-20T01:55:58;98483.11;;;17.17;79.42
50710;BME280;37033;49.994;21.992;2023-07-20T01:58:29;98478.91;;;17.16;79.40
50710;BME280;37033;49.994;21.992;2023-07-20T02:01:00;98475.15;;;17.17;79.48
50710;BME280;37033;49.994;21.992;2023-07-20T02:03:31;98467.52;;;17.17;79.57
50710;BME280;37033;49.994;21.992;2023-07-20T02:06:01;98465.66;;;17.15;79.55
50710;BME280;37033;49.994;21.992;2023-07-20T02:08:32;98453.23;;;17.12;79.63
50710;BME280;37033;49.994;21.992;2023-07-20T02:11:02;98454.11;;;17.12;79.61
50710;BME280;37033;49.994;21.992;2023-07-20T02:13:34;98456.64;;;17.12;79.70
50710;BME280;37033;49.994;21.992;2023-07-20T02:16:05;98458.98;;;17.11;79.57
50710;BME280;37033;49.994;21.992;2023-07-20T02:18:35;98463.66;;;17.10;79.75
50710;BME280;37033;49.994;21.992;2023-07-20T02:21:06;98462.20;;;17.09;79.90
50710;BME280;37033;49.994;21.992;2023-07-20T02:23:37;98464.02;;;17.08;79.91
50710;BME280;37033;49.994;21.992;2023-07-20T02:26:07;98462.34;;;17.08;79.90
50710;BME280;37033;49.994;21.992;2023-07-20T02:28:38;98460.33;;;17.07;79.97
50710;BME280;37033;49.994;21.992;2023-07-20T02:31:08;98453.73;;;17.05;80.04
50710;BME280;37033;49.994;21.992;2023-07-20T02:33:39;98448.02;;;17.04;79.91
50710;BME280;37033;49.994;21.992;2023-07-20T02:36:10;98444.42;;;17.03;79.89
50710;BME280;37033;49.994;21.992;2023-07-20T02:38:40;98444.83;;;17.02;80.04
50710;BME280;37033;49.994;21.992;2023-07-20T02:41:11;98444.09;;;17.01;79.74
50710;BME280;37033;49.994;21.992;2023-07-20T02:43:42;98441.32;;;16.99;79.78
50710;BME280;37033;49.994;21.992;2023-07-20T02:46:12;98440.88;;;16.97;79.84
50710;BME280;37033;49.994;21.992;2023-07-20T02:48:43;98438.29;;;16.94;79.80
50710;BME280;37033;49.994;21.992;2023-07-20T02:51:14;98435.23;;;16.92;79.93
50710;BME280;37033;49.994;21.992;2023-07-20T02:53:44;98433.51;;;16.87;80.02
50710;BME280;37033;49.994;21.992;2023-07-20T02:56:15;98429.98;;;16.85;80.19
50710;BME280;37033;49.994;21.992;2023-07-20T02:58:47;98430.44;;;16.81;80.19
50710;BME280;37033;49.994;21.992;2023-07-20T03:01:18;98429.08;;;16.77;80.25
50710;BME280;37033;49.994;21.992;2023-07-20T03:03:48;98429.91;;;16.75;80.22
50710;BME280;37033;49.994;21.992;2023-07-20T03:06:19;98431.65;;;16.74;80.37
50710;BME280;37033;49.994;21.992;2023-07-20T03:08:49;98435.78;;;16.74;80.45
50710;BME280;37033;49.994;21.992;2023-07-20T03:11:21;98438.41;;;16.73;80.51
50710;BME280;37033;49.994;21.992;2023-07-20T03:13:52;98440.52;;;16.73;80.66
50710;BME280;37033;49.994;21.992;2023-07-20T03:16:23;98444.20;;;16.73;80.68
50710;BME280;37033;49.994;21.992;2023-07-20T03:18:54;98439.09;;;16.73;80.90
50710;BME280;37033;49.994;21.992;2023-07-20T03:21:25;98439.78;;;16.74;80.89
50710;BME280;37033;49.994;21.992;2023-07-20T03:23:55;98445.34;;;16.75;81.01
50710;BME280;37033;49.994;21.992;2023-07-20T03:26:26;98447.98;;;16.76;81.18
50710;BME280;37033;49.994;21.992;2023-07-20T03:28:57;98448.83;;;16.77;80.98
50710;BME280;37033;49.994;21.992;2023-07-20T03:31:28;98453.23;;;16.79;81.18
50710;BME280;37033;49.994;21.992;2023-07-20T03:33:58;98450.38;;;16.80;81.26
50710;BME280;37033;49.994;21.992;2023-07-20T03:36:29;98452.39;;;16.81;81.25
50710;BME280;37033;49.994;21.992;2023-07-20T03:39:00;98449.40;;;16.83;81.23
50710;BME280;37033;49.994;21.992;2023-07-20T03:41:32;98450.91;;;16.85;81.30
50710;BME280;37033;49.994;21.992;2023-07-20T03:44:02;98446.77;;;16.85;81.18
50710;BME280;37033;49.994;21.992;2023-07-20T03:46:33;98446.75;;;16.86;81.32
50710;BME280;37033;49.994;21.992;2023-07-20T03:49:04;98456.00;;;16.86;81.39
50710;BME280;37033;49.994;21.992;2023-07-20T03:51:35;98460.93;;;16.86;81.45
50710;BME280;37033;49.994;21.992;2023-07-20T03:54:06;98467.14;;;16.88;81.40
50710;BME280;37033;49.994;21.992;2023-07-20T03:56:37;98471.64;;;16.93;81.42
50710;BME280;37033;49.994;21.992;2023-07-20T03:59:07;98472.08;;;16.99;81.60
50710;BME280;37033;49.994;21.992;2023-07-20T04:01:38;98468.23;;;17.05;81.65
50710;BME280;37033;49.994;21.992;2023-07-20T04:04:09;98466.77;;;17.11;81.64
50710;BME280;37033;49.994;21.992;2023-07-20T04:06:40;98460.48;;;17.18;81.80
50710;BME280;37033;49.994;21.992;2023-07-20T04:09:13;98459.83;;;17.28;81.91
50710;BME280;37033;49.994;21.992;2023-07-20T04:11:44;98473.73;;;17.37;81.85
50710;BME280;37033;49.994;21.992;2023-07-20T04:14:15;98478.33;;;17.46;81.71
50710;BME280;37033;49.994;21.992;2023-07-20T04:16:47;98479.45;;;17.52;81.60
50710;BME280;37033;49.994;21.992;2023-07-20T04:19:18;98479.98;;;17.58;81.44
50710;BME280;37033;49.994;21.992;2023-07-20T04:21:48;98485.19;;;17.63;81.31
50710;BME280;37033;49.994;21.992;2023-07-20T04:24:19;98497.17;;;17.65;81.16
50710;BME280;37033;49.994;21.992;2023-07-20T04:26:50;98514.90;;;17.66;81.05
50710;BME280;37033;49.994;21.992;2023-07-20T04:29:20;98538.32;;;17.67;81.17
50710;BME280;37033;49.994;21.992;2023-07-20T04:31:51;98547.59;;;17.65;81.17
50710;BME280;37033;49.994;21.992;2023-07-20T04:34:21;98557.45;;;17.61;81.21
50710;BME280;37033;49.994;21.992;2023-07-20T04:36:52;98573.23;;;17.56;81.37
50710;BME280;37033;49.994;21.992;2023-07-20T04:39:23;98581.39;;;17.52;81.50
50710;BME280;37033;49.994;21.992;2023-07-20T04:41:53;98579.48;;;17.48;81.88
50710;BME280;37033;49.994;21.992;2023-07-20T04:44:24;98588.61;;;17.46;81.84
50710;BME280;37033;49.994;21.992;2023-07-20T04:46:55;98586.86;;;17.45;82.02
50710;BME280;37033;49.994;21.992;2023-07-20T04:49:25;98587.64;;;17.45;82.13
50710;BME280;37033;49.994;21.992;2023-07-20T04:51:56;98587.52;;;17.45;82.07
50710;BME280;37033;49.994;21.992;2023-07-20T04:54:27;98580.61;;;17.45;82.63
50710;BME280;37033;49.994;21.992;2023-07-20T04:56:57;98564.92;;;17.43;82.63
50710;BME280;37033;49.994;21.992;2023-07-20T04:59:28;98550.53;;;17.43;82.53
50710;BME280;37033;49.994;21.992;2023-07-20T05:01:59;98525.27;;;17.45;82.87
50710;BME280;37033;49.994;21.992;2023-07-20T05:04:29;98512.83;;;17.44;83.08
50710;BME280;37033;49.994;21.992;2023-07-20T05:07:00;98528.73;;;17.45;82.83
50710;BME280;37033;49.994;21.992;2023-07-20T05:09:30;98546.27;;;17.47;82.99
50710;BME280;37033;49.994;21.992;2023-07-20T05:12:01;98566.65;;;17.48;83.11
50710;BME280;37033;49.994;21.992;2023-07-20T05:14:32;98572.11;;;17.47;83.13
50710;BME280;37033;49.994;21.992;2023-07-20T05:17:02;98574.77;;;17.45;83.43
50710;BME280;37033;49.994;21.992;2023-07-20T05:19:33;98577.31;;;17.42;83.62
50710;BME280;37033;49.994;21.992;2023-07-20T05:22:04;98585.84;;;17.36;83.49
50710;BME280;37033;49.994;21.992;2023-07-20T05:24:35;98594.11;;;17.29;83.55
50710;BME280;37033;49.994;21.992;2023-07-20T05:27:06;98603.86;;;17.24;83.69
50710;BME280;37033;49.994;21.992;2023-07-20T05:29:36;98605.50;;;17.20;83.77
50710;BME280;37033;49.994;21.992;2023-07-20T05:32:08;98601.74;;;17.14;84.00
50710;BME280;37033;49.994;21.992;2023-07-20T05:34:39;98603.20;;;17.08;84.21
50710;BME280;37033;49.994;21.992;2023-07-20T05:37:09;98627.94;;;17.01;84.43
50710;BME280;37033;49.994;21.992;2023-07-20T05:39:40;98627.23;;;16.94;84.54
50710;BME280;37033;49.994;21.992;2023-07-20T05:42:11;98596.86;;;16.86;84.63
50710;BME280;37033;49.994;21.992;2023-07-20T05:44:42;98588.34;;;16.79;84.49
50710;BME280;37033;49.994;21.992;2023-07-20T05:47:13;98590.73;;;16.73;84.73
50710;BME280;37033;49.994;21.992;2023-07-20T05:49:43;98599.48;;;16.69;84.70
50710;BME280;37033;49.994;21.992;2023-07-20T05:52:14;98606.77;;;16.67;84.78
50710;BME280;37033;49.994;21.992;2023-07-20T05:54:45;98598.06;;;16.65;84.81
50710;BME280;37033;49.994;21.992;2023-07-20T05:57:15;98599.14;;;16.64;84.93
50710;BME280;37033;49.994;21.992;2023-07-20T05:59:46;98612.27;;;16.62;85.02
50710;BME280;37033;49.994;21.992;2023-07-20T06:02:17;98614.31;;;16.62;84.93
50710;BME280;37033;49.994;21.992;2023-07-20T06:04:47;98627.23;;;16.64;84.81
50710;BME280;37033;49.994;21.992;2023-07-20T06:07:18;98649.08;;;16.67;84.81
50710;BME280;37033;49.994;21.992;2023-07-20T06:09:49;98638.58;;;16.72;84.98
50710;BME280;37033;49.994;21.992;2023-07-20T06:12:20;98625.76;;;16.75;84.86
50710;BME280;37033;49.994;21.992;2023-07-20T06:14:50;98633.71;;;16.81;84.92
50710;BME280;37033;49.994;21.992;2023-07-20T06:17:21;98632.83;;;16.89;84.91
50710;BME280;37033;49.994;21.992;2023-07-20T06:19:52;98633.34;;;16.99;84.99
50710;BME280;37033;49.994;21.992;2023-07-20T06:22:22;98635.77;;;17.10;85.08
50710;BME280;37033;49.994;21.992;2023-07-20T06:24:53;98635.11;;;17.22;85.15
50710;BME280;37033;49.994;21.992;2023-07-20T06:27:23;98621.11;;;17.33;85.16
50710;BME280;37033;49.994;21.992;2023-07-20T06:29:54;98614.44;;;17.43;84.96
50710;BME280;37033;49.994;21.992;2023-07-20T06:32:25;98627.32;;;17.50;84.88
50710;BME280;37033;49.994;21.992;2023-07-20T06:34:55;98645.30;;;17.54;84.53
50710;BME280;37033;49.994;21.992;2023-07-20T06:37:26;98649.80;;;17.58;84.36
50710;BME280;37033;49.994;21.992;2023-07-20T06:39:57;98637.20;;;17.60;84.11
50710;BME280;37033;49.994;21.992;2023-07-20T06:42:27;98626.85;;;17.60;83.95
50710;BME280;37033;49.994;21.992;2023-07-20T06:44:58;98609.02;;;17.61;83.79
50710;BME280;37033;49.994;21.992;2023-07-20T06:47:29;98618.77;;;17.65;83.97
50710;BME280;37033;49.994;21.992;2023-07-20T06:50:00;98621.10;;;17.70;83.97
50710;BME280;37033;49.994;21.992;2023-07-20T06:52:31;98607.89;;;17.72;84.09
50710;BME280;37033;49.994;21.992;2023-07-20T06:55:01;98640.00;;;17.75;83.86
50710;BME280;37033;49.994;21.992;2023-07-20T06:57:32;98649.14;;;17.77;84.07
50710;BME280;37033;49.994;21.992;2023-07-20T07:00:03;98638.27;;;17.79;84.12
50710;BME280;37033;49.994;21.992;2023-07-20T07:02:35;98667.16;;;17.84;84.28
50710;BME280;37033;49.994;21.992;2023-07-20T07:05:08;98674.89;;;17.88;84.25
50710;BME280;37033;49.994;21.992;2023-07-20T07:07:39;98682.75;;;17.91;84.27
50710;BME280;37033;49.994;21.992;2023-07-20T07:10:10;98679.30;;;17.90;84.08
50710;BME280;37033;49.994;21.992;2023-07-20T07:12:41;98677.98;;;17.88;84.12
50710;BME280;37033;49.994;21.992;2023-07-20T07:15:12;98673.73;;;17.85;83.99
50710;BME280;37033;49.994;21.992;2023-07-20T07:17:42;98654.64;;;17.84;83.86
50710;BME280;37033;49.994;21.992;2023-07-20T07:20:13;98680.95;;;17.85;84.23
50710;BME280;37033;49.994;21.992;2023-07-20T07:22:44;98684.83;;;17.83;84.21
50710;BME280;37033;49.994;21.992;2023-07-20T07:25:15;98699.35;;;17.79;84.33
50710;BME280;37033;49.994;21.992;2023-07-20T07:27:46;98705.02;;;17.70;84.30
50710;BME280;37033;49.994;21.992;2023-07-20T07:30:17;98712.30;;;17.63;84.25
50710;BME280;37033;49.994;21.992;2023-07-20T07:32:48;98719.86;;;17.55;84.02
50710;BME280;37033;49.994;21.992;2023-07-20T07:35:18;98714.21;;;17.50;83.96
50710;BME280;37033;49.994;21.992;2023-07-20T07:37:49;98709.50;;;17.46;84.21
50710;BME280;37033;49.994;21.992;2023-07-20T07:40:19;98718.27;;;17.42;84.29
50710;BME280;37033;49.994;21.992;2023-07-20T07:42:50;98721.99;;;17.33;84.26
50710;BME280;37033;49.994;21.992;2023-07-20T07:45:21;98715.55;;;17.24;84.27
50710;BME280;37033;49.994;21.992;2023-07-20T07:47:51;98721.92;;;17.18;84.51
50710;BME280;37033;49.994;21.992;2023-07-20T07:50:22;98721.08;;;17.13;84.53
50710;BME280;37033;49.994;21.992;2023-07-20T07:52:52;98714.40;;;17.11;84.30
50710;BME280;37033;49.994;21.992;2023-07-20T07:55:23;98696.18;;;17.14;84.57
50710;BME280;37033;49.994;21.992;2023-07-20T07:57:55;98693.09;;;17.17;84.49
50710;BME280;37033;49.994;21.992;2023-07-20T08:00:27;98690.70;;;17.22;84.42
50710;BME280;37033;49.994;21.992;2023-07-20T08:02:58;98674.67;;;17.22;84.46
50710;BME280;37033;49.994;21.992;2023-07-20T08:05:28;98683.08;;;17.20;84.25
50710;BME280;37033;49.994;21.992;2023-07-20T08:07:59;98700.02;;;17.21;84.32
50710;BME280;37033;49.994;21.992;2023-07-20T08:10:30;98712.40;;;17.23;84.48
50710;BME280;37033;49.994;21.992;2023-07-20T08:13:01;98709.61;;;17.22;84.34
50710;BME280;37033;49.994;21.992;2023-07-20T08:15:31;98711.05;;;17.22;84.35
50710;BME280;37033;49.994;21.992;2023-07-20T08:18:02;98718.73;;;17.23;84.58
50710;BME280;37033;49.994;21.992;2023-07-20T08:20:32;98703.69;;;17.22;84.40
50710;BME280;37033;49.994;21.992;2023-07-20T08:23:05;98701.86;;;17.25;84.52
50710;BME280;37033;49.994;21.992;2023-07-20T08:25:37;98700.71;;;17.28;84.37
50710;BME280;37033;49.994;21.992;2023-07-20T08:28:08;98706.33;;;17.36;84.65
50710;BME280;37033;49.994;21.992;2023-07-20T08:30:43;98719.55;;;17.43;84.50
50710;BME280;37033;49.994;21.992;2023-07-20T08:33:16;98713.82;;;17.50;84.51
50710;BME280;37033;49.994;21.992;2023-07-20T08:35:48;98717.12;;;17.55;84.33
50710;BME280;37033;49.994;21.992;2023-07-20T08:38:19;98712.92;;;17.65;84.45
50710;BME280;37033;49.994;21.992;2023-07-20T08:40:51;98716.17;;;17.70;84.01
50710;BME280;37033;49.994;21.992;2023-07-20T08:43:24;98723.16;;;17.79;84.09
50710;BME280;37033;49.994;21.992;2023-07-20T08:45:56;98730.44;;;17.87;83.73
50710;BME280;37033;49.994;21.992;2023-07-20T08:48:28;98732.63;;;17.99;83.31
50710;BME280;37033;49.994;21.992;2023-07-20T08:51:01;98734.23;;;18.02;82.88
50710;BME280;37033;49.994;21.992;2023-07-20T08:53:32;98733.09;;;18.01;82.38
50710;BME280;37033;49.994;21.992;2023-07-20T08:56:05;98735.58;;;18.13;83.10
50710;BME280;37033;49.994;21.992;2023-07-20T08:58:37;98746.70;;;18.44;83.31
50710;BME280;37033;49.994;21.992;2023-07-20T09:01:09;98752.64;;;18.64;82.39
50710;BME280;37033;49.994;21.992;2023-07-20T09:03:41;98753.20;;;18.72;81.35
50710;BME280;37033;49.994;21.992;2023-07-20T09:06:12;98751.31;;;18.91;81.86
50710;BME280;37033;49.994;21.992;2023-07-20T09:08:43;98749.45;;;19.17;80.99
50710;BME280;37033;49.994;21.992;2023-07-20T09:11:14;98747.86;;;19.37;79.94
50710;BME280;37033;49.994;21.992;2023-07-20T09:13:44;98747.41;;;19.50;79.65
50710;BME280;37033;49.994;21.992;2023-07-20T09:16:15;98746.23;;;19.61;79.30
50710;BME280;37033;49.994;21.992;2023-07-20T09:18:46;98743.52;;;19.70;79.12
50710;BME280;37033;49.994;21.992;2023-07-20T09:21:18;98741.55;;;19.82;78.50
50710;BME280;37033;49.994;21.992;2023-07-20T09:23:49;98742.80;;;19.93;78.24
50710;BME280;37033;49.994;21.992;2023-07-20T09:26:22;98744.38;;;20.03;78.02
50710;BME280;37033;49.994;21.992;2023-07-20T09:28:54;98747.61;;;20.08;77.49
50710;BME280;37033;49.994;21.992;2023-07-20T09:31:25;98750.67;;;20.10;77.23
50710;BME280;37033;49.994;21.992;2023-07-20T09:33:56;98753.54;;;20.28;77.89
50710;BME280;37033;49.994;21.992;2023-07-20T09:36:27;98752.72;;;20.55;77.59
50710;BME280;37033;49.994;21.992;2023-07-20T09:39:00;98754.41;;;20.90;77.32
50710;BME280;37033;49.994;21.992;2023-07-20T09:41:31;98755.94;;;21.20;75.40
50710;BME280;37033;49.994;21.992;2023-07-20T09:44:11;98758.02;;;21.37;74.64
50710;BME280;37033;49.994;21.992;2023-07-20T09:46:44;98757.27;;;21.52;74.29
50710;BME280;37033;49.994;21.992;2023-07-20T09:49:15;98755.52;;;21.66;73.45
50710;BME280;37033;49.994;21.992;2023-07-20T09:51:47;98752.09;;;21.84;73.59
50710;BME280;37033;49.994;21.992;2023-07-20T09:54:19;98752.30;;;22.05;72.27
50710;BME280;37033;49.994;21.992;2023-07-20T09:56:52;98749.77;;;22.15;70.22
50710;BME280;37033;49.994;21.992;2023-07-20T09:59:23;98752.43;;;22.24;69.67
50710;BME280;37033;49.994;21.992;2023-07-20T10:01:55;98754.11;;;22.27;69.13
50710;BME280;37033;49.994;21.992;2023-07-20T10:04:29;98752.75;;;22.36;69.06
50710;BME280;37033;49.994;21.992;2023-07-20T10:07:02;98747.75;;;22.39;68.50
50710;BME280;37033;49.994;21.992;2023-07-20T10:09:36;98743.85;;;22.55;68.69
50710;BME280;37033;49.994;21.992;2023-07-20T10:12:10;98749.30;;;22.72;67.73
50710;BME280;37033;49.994;21.992;2023-07-20T10:14:44;98751.20;;;22.87;67.50
50710;BME280;37033;49.994;21.992;2023-07-20T10:17:18;98751.22;;;23.14;67.98
50710;BME280;37033;49.994;21.992;2023-07-20T10:19:52;98751.29;;;23.55;68.03
50710;BME280;37033;49.994;21.992;2023-07-20T10:22:26;98753.88;;;23.81;67.07
50710;BME280;37033;49.994;21.992;2023-07-20T10:24:59;98754.48;;;24.07;65.94
50710;BME280;37033;49.994;21.992;2023-07-20T10:27:30;98753.37;;;24.17;63.45
50710;BME280;37033;49.994;21.992;2023-07-20T10:30:01;98749.84;;;24.08;62.97
50710;BME280;37033;49.994;21.992;2023-07-20T10:32:33;98750.77;;;24.09;62.79
50710;BME280;37033;49.994;21.992;2023-07-20T10:35:13;98755.15;;;24.01;61.55
50710;BME280;37033;49.994;21.992;2023-07-20T10:37:52;98754.69;;;23.86;60.35
50710;BME280;37033;49.994;21.992;2023-07-20T10:40:33;98755.63;;;23.83;60.04
50710;BME280;37033;49.994;21.992;2023-07-20T10:43:05;98752.19;;;23.95;60.65
50710;BME280;37033;49.994;21.992;2023-07-20T10:45:50;98753.35;;;24.16;60.16
50710;BME280;37033;49.994;21.992;2023-07-20T10:48:21;98751.31;;;24.21;59.71
50710;BME280;37033;49.994;21.992;2023-07-20T10:51:13;98754.23;;;24.34;59.23
50710;BME280;37033;49.994;21.992;2023-07-20T10:53:44;98749.30;;;24.48;59.24
50710;BME280;37033;49.994;21.992;2023-07-20T10:56:19;98746.16;;;24.73;58.77
50710;BME280;37033;49.994;21.992;2023-07-20T10:58:50;98738.96;;;25.07;58.10
50710;BME280;37033;49.994;21.992;2023-07-20T11:01:29;98739.60;;;25.27;57.44
50710;BME280;37033;49.994;21.992;2023-07-20T11:04:00;98736.19;;;25.53;57.42
50710;BME280;37033;49.994;21.992;2023-07-20T11:06:32;98734.23;;;25.83;56.30
50710;BME280;37033;49.994;21.992;2023-07-20T11:09:09;98737.78;;;25.93;54.29
50710;BME280;37033;49.994;21.992;2023-07-20T11:11:41;98731.64;;;26.03;54.92
50710;BME280;37033;49.994;21.992;2023-07-20T11:14:22;98728.05;;;26.05;52.64
50710;BME280;37033;49.994;21.992;2023-07-20T11:16:53;98722.08;;;25.92;52.40
50710;BME280;37033;49.994;21.992;2023-07-20T11:19:25;98716.17;;;25.83;52.60
50710;BME280;37033;49.994;21.992;2023-07-20T11:21:57;98709.73;;;26.08;52.92
50710;BME280;37033;49.994;21.992;2023-07-20T11:24:29;98704.59;;;26.37;52.98
50710;BME280;37033;49.994;21.992;2023-07-20T11:27:03;98700.29;;;26.65;52.89
50710;BME280;37033;49.994;21.992;2023-07-20T11:29:34;98692.59;;;26.82;52.30
50710;BME280;37033;49.994;21.992;2023-07-20T11:32:06;98691.92;;;26.96;51.93
50710;BME280;37033;49.994;21.992;2023-07-20T11:34:37;98686.35;;;27.06;49.61
50710;BME280;37033;49.994;21.992;2023-07-20T11:37:08;98684.59;;;27.01;49.35
50710;BME280;37033;49.994;21.992;2023-07-20T11:39:39;98688.86;;;26.95;49.14
50710;BME280;37033;49.994;21.992;2023-07-20T11:42:11;98688.78;;;26.83;47.04
50710;BME280;37033;49.994;21.992;2023-07-20T11:44:42;98682.84;;;26.61;46.67
50710;BME280;37033;49.994;21.992;2023-07-20T11:47:13;98686.00;;;26.49;47.24
50710;BME280;37033;49.994;21.992;2023-07-20T11:49:44;98684.55;;;26.53;47.94
50710;BME280;37033;49.994;21.992;2023-07-20T11:52:18;98676.30;;;26.57;47.65
50710;BME280;37033;49.994;21.992;2023-07-20T11:54:49;98673.41;;;26.76;48.91
50710;BME280;37033;49.994;21.992;2023-07-20T11:57:20;98670.33;;;27.14;48.16
50710;BME280;37033;49.994;21.992;2023-07-20T12:00:02;98669.34;;;27.32;47.11
50710;BME280;37033;49.994;21.992;2023-07-20T12:02:38;98671.13;;;27.43;46.47
50710;BME280;37033;49.994;21.992;2023-07-20T12:05:10;98670.75;;;27.45;45.99
50710;BME280;37033;49.994;21.992;2023-07-20T12:07:41;98667.76;;;27.37;46.15
50710;BME280;37033;49.994;21.992;2023-07-20T12:10:13;98665.67;;;27.28;45.65
50710;BME280;37033;49.994;21.992;2023-07-20T12:12:45;98664.75;;;27.14;45.04
50710;BME280;37033;49.994;21.992;2023-07-20T12:15:21;98666.60;;;26.90;44.71
50710;BME280;37033;49.994;21.992;2023-07-20T12:17:53;98671.52;;;26.68;44.90
50710;BME280;37033;49.994;21.992;2023-07-20T12:20:31;98665.80;;;26.52;45.39
50710;BME280;37033;49.994;21.992;2023-07-20T12:23:03;98660.00;;;26.48;46.06
50710;BME280;37033;49.994;21.992;2023-07-20T12:25:38;98666.58;;;26.47;45.98
50710;BME280;37033;49.994;21.992;2023-07-20T12:28:11;98661.74;;;26.37;45.97
50710;BME280;37033;49.994;21.992;2023-07-20T12:30:43;98659.42;;;26.32;45.38
50710;BME280;37033;49.994;21.992;2023-07-20T12:33:14;98668.86;;;26.20;45.72
50710;BME280;37033;49.994;21.992;2023-07-20T12:35:45;98669.64;;;26.23;45.95
50710;BME280;37033;49.994;21.992;2023-07-20T12:38:16;98664.49;;;26.28;46.41
50710;BME280;37033;49.994;21.992;2023-07-20T12:40:47;98662.11;;;26.35;45.63
50710;BME280;37033;49.994;21.992;2023-07-20T12:43:18;98659.95;;;26.39;45.08
50710;BME280;37033;49.994;21.992;2023-07-20T12:45:48;98661.67;;;26.48;45.06
50710;BME280;37033;49.994;21.992;2023-07-20T12:48:19;98653.66;;;26.57;44.07
50710;BME280;37033;49.994;21.992;2023-07-20T12:50:50;98654.23;;;26.61;43.97
50710;BME280;37033;49.994;21.992;2023-07-20T12:53:21;98646.36;;;26.73;45.09
50710;BME280;37033;49.994;21.992;2023-07-20T12:55:51;98643.25;;;26.98;45.01
50710;BME280;37033;49.994;21.992;2023-07-20T12:58:22;98638.40;;;27.16;44.45
50710;BME280;37033;49.994;21.992;2023-07-20T13:00:53;98637.60;;;27.31;44.54
50710;BME280;37033;49.994;21.992;2023-07-20T13:03:24;98638.29;;;27.54;43.47
50710;BME280;37033;49.994;21.992;2023-07-20T13:05:54;98643.39;;;27.58;42.65
50710;BME280;37033;49.994;21.992;2023-07-20T13:08:25;98644.50;;;27.58;42.53
50710;BME280;37033;49.994;21.992;2023-07-20T13:10:56;98638.89;;;27.65;42.83
50710;BME280;37033;49.994;21.992;2023-07-20T13:13:27;98644.64;;;27.76;42.28